createdAt,value
2022-09-12T00:01:56.901Z,100.00
2022-09-12T00:05:58.316Z,100.00
2022-09-12T00:09:59.779Z,100.00
2022-09-12T00:14:01.756Z,100.00
2022-09-12T00:18:03.236Z,100.00
2022-09-12T00:22:04.612Z,100.00
2022-09-12T00:26:07.146Z,100.00
2022-09-12T00:30:08.839Z,100.00
2022-09-12T00:34:10.304Z,100.00
2022-09-12T00:38:16.388Z,100.00
2022-09-12T00:42:17.768Z,100.00
2022-09-12T00:46:30.298Z,100.00
2022-09-12T00:50:32.894Z,100.00
2022-09-12T00:54:56.947Z,100.00
2022-09-12T00:59:05.340Z,100.00
2022-09-12T01:03:15.911Z,100.00
2022-09-12T01:07:17.478Z,100.00
2022-09-12T01:11:20.607Z,100.00
2022-09-12T01:15:22.097Z,100.00
2022-09-12T01:19:57.314Z,100.00
2022-09-12T01:24:37.519Z,100.00
2022-09-12T01:29:16.735Z,100.00
2022-09-12T01:33:42.755Z,100.00
2022-09-12T01:37:54.649Z,100.00
2022-09-12T01:42:03.661Z,100.00
2022-09-12T01:46:27.359Z,100.00
2022-09-12T01:50:33.863Z,100.00
2022-09-12T01:54:47.980Z,100.00
2022-09-12T01:59:02.396Z,100.00
2022-09-12T02:03:20.142Z,100.00
2022-09-12T02:07:30.982Z,100.00
2022-09-12T02:11:35.839Z,100.00
2022-09-12T02:15:52.551Z,100.00
2022-09-12T02:20:31.090Z,100.00
2022-09-12T02:24:42.247Z,100.00
2022-09-12T02:28:43.861Z,100.00
2022-09-12T02:33:01.218Z,100.00
2022-09-12T02:37:23.595Z,100.00
2022-09-12T02:41:25.112Z,100.00
2022-09-12T02:45:26.781Z,100.00
2022-09-12T02:49:28.295Z,100.00
2022-09-12T02:53:29.766Z,100.00
2022-09-12T02:57:31.773Z,100.00
2022-09-12T03:02:01.109Z,100.00
2022-09-12T03:06:14.667Z,100.00
2022-09-12T03:10:41.651Z,100.00
2022-09-12T03:15:07.791Z,100.00
2022-09-12T03:19:26.687Z,100.00
2022-09-12T03:24:02.839Z,100.00
2022-09-12T03:28:09.318Z,100.00
2022-09-12T03:32:10.730Z,100.00
2022-09-12T03:36:30.868Z,100.00
2022-09-12T03:40:32.166Z,100.00
2022-09-12T03:44:33.523Z,100.00
2022-09-12T03:48:35.264Z,100.00
2022-09-12T03:52:36.858Z,100.00
2022-09-12T03:56:40.339Z,100.00
2022-09-12T04:00:42.941Z,100.00
2022-09-12T04:04:48.793Z,100.00
2022-09-12T04:08:52.007Z,100.00
2022-09-12T04:12:53.463Z,100.00
2022-09-12T04:16:54.971Z,100.00
2022-09-12T04:20:56.834Z,100.00
2022-09-12T04:24:58.212Z,100.00
2022-09-12T04:28:59.666Z,100.00
2022-09-12T04:33:03.918Z,100.00
2022-09-12T04:37:08.928Z,100.00
2022-09-12T04:41:24.937Z,100.00
2022-09-12T04:45:26.367Z,100.00
2022-09-12T04:49:27.813Z,100.00
2022-09-12T04:53:29.194Z,100.00
2022-09-12T04:57:30.591Z,100.00
2022-09-12T05:01:32.238Z,100.00
2022-09-12T05:05:33.717Z,100.00
2022-09-12T05:09:35.125Z,100.00
2022-09-12T05:13:36.912Z,100.00
2022-09-12T05:17:38.318Z,100.00
2022-09-12T05:21:39.886Z,100.00
2022-09-12T05:25:49.182Z,100.00
2022-09-12T05:29:51.329Z,100.00
2022-09-12T05:33:54.949Z,100.00
2022-09-12T05:37:56.325Z,100.00
2022-09-12T05:41:57.776Z,100.00
2022-09-12T05:46:09.309Z,100.00
2022-09-12T05:50:11.191Z,100.00
2022-09-12T05:54:17.803Z,100.00
2022-09-12T05:58:20.465Z,100.00
2022-09-12T06:02:22.249Z,100.00
2022-09-12T06:06:25.157Z,100.00
2022-09-12T06:10:26.865Z,100.00
2022-09-12T06:14:28.624Z,100.00
2022-09-12T06:18:30.012Z,100.00
2022-09-12T06:22:31.618Z,100.00
2022-09-12T06:26:33.334Z,100.00
2022-09-12T06:30:34.844Z,100.00
2022-09-12T06:34:36.491Z,100.00
2022-09-12T06:38:38.426Z,100.00
2022-09-12T06:42:39.898Z,100.00
2022-09-12T06:46:41.860Z,100.00
2022-09-12T06:50:43.400Z,100.00
2022-09-12T06:54:45.027Z,100.00
2022-09-12T06:58:48.129Z,100.00
2022-09-12T07:02:53.968Z,100.00
2022-09-12T07:06:55.385Z,100.00
2022-09-12T07:10:59.005Z,100.00
2022-09-12T07:15:01.080Z,100.00
2022-09-12T07:19:05.670Z,100.00
2022-09-12T07:23:07.113Z,100.00
2022-09-12T07:27:08.889Z,100.00
2022-09-12T07:31:17.623Z,100.00
2022-09-12T07:35:19.415Z,100.00
2022-09-12T07:39:20.870Z,100.00
2022-09-12T07:43:22.965Z,100.00
2022-09-12T07:47:24.477Z,100.00
2022-09-12T07:51:27.314Z,100.00
2022-09-12T07:55:28.773Z,100.00
2022-09-12T07:59:50.887Z,100.00
2022-09-12T08:03:58.105Z,100.00
2022-09-12T08:07:59.574Z,100.00
2022-09-12T08:12:01.121Z,100.00
2022-09-12T08:16:08.018Z,100.00
2022-09-12T08:20:09.528Z,99.47
2022-09-12T08:24:12.079Z,95.25
2022-09-12T08:28:13.828Z,91.62
2022-09-12T08:32:15.395Z,94.01
2022-09-12T08:36:22.982Z,89.81
2022-09-12T08:40:24.680Z,85.62
2022-09-12T08:44:55.421Z,83.73
2022-09-12T08:48:59.954Z,88.53
2022-09-12T08:53:10.606Z,86.37
2022-09-12T08:57:14.445Z,86.76
2022-09-12T09:01:32.643Z,79.67
2022-09-12T09:05:52.840Z,78.02
2022-09-12T09:10:23.716Z,77.47
2022-09-12T09:14:49.629Z,76.84
2022-09-12T09:18:57.338Z,72.15
2022-09-12T09:23:04.933Z,72.27
2022-09-12T09:27:40.361Z,75.79
2022-09-12T09:31:48.482Z,78.64
2022-09-12T09:36:03.739Z,75.34
2022-09-12T09:40:14.776Z,78.90
2022-09-12T09:44:17.393Z,71.35
2022-09-12T09:48:35.242Z,70.24
2022-09-12T09:52:37.946Z,72.31
2022-09-12T09:56:42.378Z,68.39
2022-09-12T10:00:43.890Z,69.25
2022-09-12T10:05:03.654Z,72.12
2022-09-12T10:09:21.189Z,71.01
2022-09-12T10:13:35.551Z,70.84
2022-09-12T10:17:43.756Z,69.96
2022-09-12T10:21:52.666Z,64.50
2022-09-12T10:25:58.286Z,59.34
2022-09-12T10:29:59.632Z,60.61
2022-09-12T10:34:01.309Z,63.30
2022-09-12T10:38:16.621Z,60.89
2022-09-12T10:42:38.255Z,66.28
2022-09-12T10:46:40.382Z,68.37
2022-09-12T10:50:42.984Z,66.52
2022-09-12T10:54:45.233Z,64.86
2022-09-12T10:58:55.896Z,63.74
2022-09-12T11:03:17.592Z,59.77
2022-09-12T11:07:39.815Z,60.75
2022-09-12T11:11:59.215Z,61.57
2022-09-12T11:16:42.115Z,61.56
2022-09-12T11:20:45.371Z,67.08
2022-09-12T11:25:03.956Z,67.06
2022-09-12T11:29:11.233Z,66.73
2022-09-12T11:33:42.929Z,67.66
2022-09-12T11:38:08.262Z,65.75
2022-09-12T11:42:18.706Z,63.12
2022-09-12T11:46:31.658Z,61.26
2022-09-12T11:50:33.740Z,56.88
2022-09-12T11:54:54.130Z,54.76
2022-09-12T11:59:05.536Z,51.79
2022-09-12T12:03:06.951Z,50.71
2022-09-12T12:07:11.048Z,50.59
2022-09-12T12:11:15.619Z,49.15
2022-09-12T12:15:18.251Z,51.37
2022-09-12T12:19:19.645Z,51.55
2022-09-12T12:23:31.295Z,48.24
2022-09-12T12:28:01.973Z,49.75
2022-09-12T12:32:06.383Z,52.34
2022-09-12T12:36:30.339Z,49.87
2022-09-12T12:40:32.826Z,50.62
2022-09-12T12:44:47.210Z,52.14
2022-09-12T12:48:51.625Z,51.47
2022-09-12T12:53:06.897Z,51.43
2022-09-12T12:57:28.670Z,53.99
2022-09-12T13:01:31.085Z,54.59
2022-09-12T13:05:45.803Z,54.32
2022-09-12T13:09:52.560Z,54.40
2022-09-12T13:14:00.240Z,54.06
2022-09-12T13:18:10.083Z,55.92
2022-09-12T13:22:11.521Z,53.59
2022-09-12T13:26:22.573Z,54.28
2022-09-12T13:30:24.318Z,51.85
2022-09-12T13:34:33.843Z,51.46
2022-09-12T13:38:57.751Z,51.21
2022-09-12T13:43:15.236Z,53.98
2022-09-12T13:47:24.601Z,53.77
2022-09-12T13:51:32.052Z,51.47
2022-09-12T13:55:43.081Z,54.46
2022-09-12T13:59:45.290Z,54.68
2022-09-12T14:04:14.031Z,53.24
2022-09-12T14:08:15.560Z,54.05
2022-09-12T14:12:34.443Z,54.32
2022-09-12T14:16:40.113Z,55.60
2022-09-12T14:20:42.689Z,57.48
2022-09-12T14:24:51.638Z,57.88
2022-09-12T14:28:53.323Z,55.06
2022-09-12T14:33:03.634Z,56.03
2022-09-12T14:37:07.228Z,56.46
2022-09-12T14:41:11.211Z,57.39
2022-09-12T14:45:26.982Z,57.95
2022-09-12T14:49:33.447Z,56.88
2022-09-12T14:53:37.527Z,57.39
2022-09-12T14:57:40.565Z,58.00
2022-09-12T15:01:42.002Z,59.51
2022-09-12T15:05:50.306Z,59.79
2022-09-12T15:09:52.322Z,58.57
2022-09-12T15:13:54.423Z,57.74
2022-09-12T15:17:55.829Z,56.76
2022-09-12T15:21:57.761Z,56.59
2022-09-12T15:25:59.575Z,57.67
2022-09-12T15:30:01.165Z,57.69
2022-09-12T15:34:02.899Z,60.56
2022-09-12T15:38:04.390Z,61.99
2022-09-12T15:42:06.123Z,57.85
2022-09-12T15:46:11.647Z,60.55
2022-09-12T15:50:13.773Z,60.52
2022-09-12T15:54:17.257Z,60.39
2022-09-12T15:58:18.860Z,59.34
2022-09-12T16:02:20.463Z,62.57
2022-09-12T16:06:22.314Z,58.18
2022-09-12T16:10:27.717Z,60.06
2022-09-12T16:14:29.208Z,64.64
2022-09-12T16:18:30.668Z,63.20
2022-09-12T16:22:32.231Z,65.12
2022-09-12T16:26:34.048Z,65.68
2022-09-12T16:30:35.860Z,66.87
2022-09-12T16:34:37.353Z,68.46
2022-09-12T16:38:46.637Z,69.18
2022-09-12T16:42:48.181Z,69.17
2022-09-12T16:46:51.114Z,70.05
2022-09-12T16:50:57.393Z,70.51
2022-09-12T16:54:59.003Z,72.09
2022-09-12T16:59:00.511Z,74.41
2022-09-12T17:03:01.962Z,72.32
2022-09-12T17:07:03.405Z,70.74
2022-09-12T17:11:07.425Z,73.54
2022-09-12T17:15:09.879Z,75.69
2022-09-12T17:19:29.930Z,76.76
2022-09-12T17:23:31.411Z,76.98
2022-09-12T17:27:32.865Z,79.76
2022-09-12T17:31:34.578Z,81.09
2022-09-12T17:35:38.046Z,81.07
2022-09-12T17:39:39.548Z,81.20
2022-09-12T17:43:41.040Z,84.07
2022-09-12T17:47:43.182Z,87.07
2022-09-12T17:51:44.990Z,90.63
2022-09-12T17:55:46.440Z,93.48
2022-09-12T17:59:47.971Z,90.79
2022-09-12T18:03:49.483Z,88.93
2022-09-12T18:07:52.423Z,90.03
2022-09-12T18:11:54.279Z,92.69
2022-09-12T18:16:02.708Z,96.31
2022-09-12T18:20:04.479Z,97.24
2022-09-12T18:24:06.359Z,97.54
2022-09-12T18:28:09.237Z,98.78
2022-09-12T18:32:10.806Z,98.84
2022-09-12T18:36:13.542Z,99.76
2022-09-12T18:40:15.164Z,100.00
2022-09-12T18:44:16.991Z,100.00
2022-09-12T18:48:18.494Z,100.00
2022-09-12T18:52:20.149Z,100.00
2022-09-12T18:56:23.575Z,100.00
2022-09-12T19:00:25.111Z,100.00
2022-09-12T19:04:26.641Z,100.00
2022-09-12T19:08:37.193Z,100.00
2022-09-12T19:12:38.702Z,100.00
2022-09-12T19:16:40.483Z,100.00
2022-09-12T19:20:42.419Z,100.00
2022-09-12T19:24:43.983Z,100.00
2022-09-12T19:28:45.759Z,100.00
2022-09-12T19:32:47.223Z,100.00
2022-09-12T19:36:49.029Z,100.00
2022-09-12T19:40:57.860Z,100.00
2022-09-12T19:44:59.384Z,100.00
2022-09-12T19:49:07.066Z,100.00
2022-09-12T19:53:08.606Z,100.00
2022-09-12T19:57:10.099Z,100.00
2022-09-12T20:01:17.385Z,100.00
2022-09-12T20:05:20.244Z,100.00
2022-09-12T20:09:21.830Z,100.00
2022-09-12T20:13:23.435Z,100.00
2022-09-12T20:17:24.928Z,100.00
2022-09-12T20:21:32.137Z,100.00
2022-09-12T20:25:33.888Z,100.00
2022-09-12T20:29:35.355Z,100.00
2022-09-12T20:33:37.119Z,100.00
2022-09-12T20:37:40.466Z,100.00
2022-09-12T20:41:42.748Z,100.00
2022-09-12T20:45:44.342Z,100.00
2022-09-12T20:49:49.015Z,100.00
2022-09-12T20:53:54.605Z,100.00
2022-09-12T20:57:56.092Z,100.00
2022-09-12T21:01:57.652Z,100.00
2022-09-12T21:05:59.174Z,100.00
2022-09-12T21:10:00.819Z,100.00
2022-09-12T21:14:02.418Z,100.00
2022-09-12T21:18:04.192Z,100.00
2022-09-12T21:22:05.667Z,100.00
2022-09-12T21:26:07.541Z,100.00
2022-09-12T21:30:09.504Z,100.00
2022-09-12T21:34:10.907Z,100.00
2022-09-12T21:38:12.384Z,100.00
2022-09-12T21:42:13.793Z,100.00
2022-09-12T21:46:15.253Z,100.00
2022-09-12T21:50:16.800Z,100.00
2022-09-12T21:54:18.203Z,100.00
2022-09-12T21:58:19.826Z,100.00
2022-09-12T22:02:22.986Z,100.00
2022-09-12T22:06:24.537Z,100.00
2022-09-12T22:10:26.807Z,100.00
2022-09-12T22:14:29.456Z,100.00
2022-09-12T22:18:36.075Z,100.00
2022-09-12T22:22:56.784Z,100.00
2022-09-12T22:26:59.134Z,100.00
2022-09-12T22:31:01.301Z,100.00
2022-09-12T22:35:04.537Z,100.00
2022-09-12T22:39:06.605Z,100.00
2022-09-12T22:43:08.903Z,100.00
2022-09-12T22:47:10.398Z,100.00
2022-09-12T22:51:11.819Z,100.00
2022-09-12T22:55:13.282Z,100.00
2022-09-12T22:59:14.982Z,100.00
2022-09-12T23:03:18.141Z,100.00
2022-09-12T23:07:19.666Z,100.00
2022-09-12T23:11:22.058Z,100.00
2022-09-12T23:15:23.515Z,100.00
2022-09-12T23:19:24.929Z,100.00
2022-09-12T23:23:27.027Z,100.00
2022-09-12T23:27:28.455Z,100.00
2022-09-12T23:31:31.941Z,100.00
2022-09-12T23:35:34.600Z,100.00
2022-09-12T23:39:36.076Z,100.00
2022-09-12T23:43:37.923Z,100.00
2022-09-12T23:47:39.365Z,100.00
2022-09-12T23:51:40.777Z,100.00
2022-09-12T23:55:42.768Z,100.00
2022-09-12T23:59:44.176Z,100.00
